Time,TemperatureF,DewpointF,PressureIn,WindDirection,WindDirectionDegrees,WindSpeedMPH,WindSpeedGustMPH,Humidity,HourlyPrecipIn,Conditions,Clouds,dailyrainin,SolarRadiationWatts/m^2,SoftwareType,DateUTC
2013-03-31 00:23:00,55.0,52.0,-100.00,SE,131,8.0,10.0,91,0.00,,,0.00,0.000000,,2013-03-31 10:23:00,
2013-03-31 00:32:00,55.0,52.0,-100.00,SE,131,8.0,10.0,91,0.00,,,0.00,0.000000,,2013-03-31 10:32:00,
2013-03-31 00:42:00,55.0,52.0,-100.00,SE,131,8.0,10.0,91,0.00,,,0.00,0.000000,,2013-03-31 10:42:00,
2013-03-31 00:52:00,55.0,52.0,-100.00,SE,131,8.0,10.0,91,0.00,,,0.00,0.000000,,2013-03-31 10:52:00,
2013-03-31 01:23:00,55.0,53.0,-100.00,SW,223,2.0,11.0,92,0.00,,,0.00,0.000000,,2013-03-31 11:23:00,
2013-03-31 01:32:00,55.0,53.0,-100.00,SW,223,2.0,11.0,92,0.00,,,0.00,0.000000,,2013-03-31 11:32:00,
2013-03-31 01:42:00,55.0,53.0,-100.00,SW,223,2.0,11.0,92,0.00,,,0.00,0.000000,,2013-03-31 11:42:00,
2013-03-31 01:52:00,55.0,53.0,-100.00,SW,223,2.0,11.0,92,0.00,,,0.00,0.000000,,2013-03-31 11:52:00,
2013-03-31 02:22:00,50.0,48.0,-100.00,ESE,119,9.0,12.0,92,0.00,,,0.00,0.000000,,2013-03-31 12:22:00,
2013-03-31 02:32:00,50.0,48.0,-100.00,ESE,119,9.0,12.0,92,0.00,,,0.00,0.000000,,2013-03-31 12:32:00,
2013-03-31 02:42:00,50.0,48.0,-100.00,ESE,119,9.0,12.0,92,0.00,,,0.00,0.000000,,2013-03-31 12:42:00,
2013-03-31 02:52:00,50.0,48.0,-100.00,ESE,119,9.0,12.0,92,0.00,,,0.00,0.000000,,2013-03-31 12:52:00,
2013-03-31 03:22:00,53.0,50.0,-100.00,SW,233,4.0,12.0,90,0.00,,,-99.99,0.000000,,2013-03-31 13:22:00,
2013-03-31 03:32:00,53.0,50.0,-100.00,SW,233,4.0,12.0,90,0.00,,,-99.99,0.000000,,2013-03-31 13:32:00,
2013-03-31 03:42:00,53.0,50.0,-100.00,SW,233,4.0,12.0,90,0.00,,,-99.99,0.000000,,2013-03-31 13:42:00,
2013-03-31 03:52:00,53.0,50.0,-100.00,SW,233,4.0,12.0,90,0.00,,,-99.99,0.000000,,2013-03-31 13:52:00,
2013-03-31 04:22:00,51.0,50.0,-100.00,SE,145,5.0,7.0,96,0.00,,,0.00,0.000000,,2013-03-31 14:22:00,
2013-03-31 04:32:00,51.0,50.0,-100.00,SE,145,5.0,7.0,96,0.00,,,0.00,0.000000,,2013-03-31 14:32:00,
2013-03-31 04:42:00,51.0,50.0,-100.00,SE,145,5.0,7.0,96,0.00,,,0.00,0.000000,,2013-03-31 14:42:00,
2013-03-31 04:52:00,51.0,50.0,-100.00,SE,145,5.0,7.0,96,0.00,,,0.00,0.000000,,2013-03-31 14:52:00,
2013-03-31 05:22:00,53.0,51.0,-100.00,South,169,2.0,6.0,94,0.00,,,0.00,0.000000,,2013-03-31 15:22:00,
2013-03-31 05:33:00,53.0,51.0,-100.00,South,169,2.0,6.0,94,0.00,,,0.00,0.000000,,2013-03-31 15:33:00,
2013-03-31 05:43:00,53.0,51.0,-100.00,South,169,2.0,6.0,94,0.00,,,0.00,0.000000,,2013-03-31 15:43:00,
2013-03-31 05:53:00,53.0,51.0,-100.00,South,169,2.0,6.0,94,0.00,,,0.00,0.000000,,2013-03-31 15:53:00,
2013-03-31 06:22:00,51.0,49.0,-100.00,ESE,123,7.0,9.0,94,0.00,,,0.00,0.000000,,2013-03-31 16:22:00,
2013-03-31 06:33:00,51.0,49.0,-100.00,ESE,123,7.0,9.0,94,0.00,,,0.00,0.000000,,2013-03-31 16:33:00,
2013-03-31 06:42:00,51.0,49.0,-100.00,ESE,123,7.0,9.0,94,0.00,,,0.00,0.000000,,2013-03-31 16:42:00,
2013-03-31 06:52:00,51.0,49.0,-100.00,ESE,123,7.0,9.0,94,0.00,,,0.00,0.000000,,2013-03-31 16:52:00,
2013-03-31 07:22:00,51.0,50.0,-100.00,ESE,111,7.0,11.0,95,0.00,,,0.00,13.000000,,2013-03-31 17:22:00,
2013-03-31 07:32:00,51.0,50.0,-100.00,ESE,111,7.0,11.0,95,0.00,,,0.00,13.000000,,2013-03-31 17:32:00,
2013-03-31 07:42:00,51.0,50.0,-100.00,ESE,111,7.0,11.0,95,0.00,,,0.00,13.000000,,2013-03-31 17:42:00,
2013-03-31 07:52:00,51.0,50.0,-100.00,ESE,111,7.0,11.0,95,0.00,,,0.00,13.000000,,2013-03-31 17:52:00,
2013-03-31 08:22:00,59.0,54.0,-100.00,ENE,74,4.0,9.0,85,0.00,,,0.00,207.000000,,2013-03-31 18:22:00,
2013-03-31 08:32:00,59.0,54.0,-100.00,ENE,74,4.0,9.0,85,0.00,,,0.00,207.000000,,2013-03-31 18:32:00,
2013-03-31 08:42:00,59.0,54.0,-100.00,ENE,74,4.0,9.0,85,0.00,,,0.00,207.000000,,2013-03-31 18:42:00,
2013-03-31 08:52:00,59.0,54.0,-100.00,ENE,74,4.0,9.0,85,0.00,,,0.00,207.000000,,2013-03-31 18:52:00,
2013-03-31 09:22:00,60.0,52.0,-100.00,North,358,5.0,10.0,76,0.00,,,0.00,481.000000,,2013-03-31 19:22:00,
2013-03-31 09:32:00,60.0,52.0,-100.00,North,358,5.0,10.0,76,0.00,,,0.00,481.000000,,2013-03-31 19:32:00,
2013-03-31 09:42:00,60.0,52.0,-100.00,North,358,5.0,10.0,76,0.00,,,0.00,481.000000,,2013-03-31 19:42:00,
2013-03-31 09:53:00,60.0,52.0,-100.00,North,358,5.0,10.0,76,0.00,,,0.00,481.000000,,2013-03-31 19:53:00,
2013-03-31 10:22:00,63.0,53.0,-100.00,WNW,299,6.0,11.0,69,0.00,,,0.00,748.000000,,2013-03-31 20:22:00,
2013-03-31 10:33:00,63.0,53.0,-100.00,WNW,299,6.0,11.0,69,0.00,,,0.00,748.000000,,2013-03-31 20:33:00,
2013-03-31 10:42:00,63.0,53.0,-100.00,WNW,299,6.0,11.0,69,0.00,,,0.00,748.000000,,2013-03-31 20:42:00,
2013-03-31 10:52:00,63.0,53.0,-100.00,WNW,299,6.0,11.0,69,0.00,,,0.00,748.000000,,2013-03-31 20:52:00,
2013-03-31 11:22:00,64.0,54.0,-100.00,WNW,286,10.0,17.0,71,0.00,,,0.00,875.000000,,2013-03-31 21:22:00,
2013-03-31 11:33:00,64.0,54.0,-100.00,WNW,286,10.0,17.0,71,0.00,,,0.00,875.000000,,2013-03-31 21:33:00,
2013-03-31 11:43:00,64.0,54.0,-100.00,WNW,286,10.0,17.0,71,0.00,,,0.00,875.000000,,2013-03-31 21:43:00,
2013-03-31 11:53:00,64.0,54.0,-100.00,WNW,286,10.0,17.0,71,0.00,,,0.00,875.000000,,2013-03-31 21:53:00,
2013-03-31 12:23:00,65.0,55.0,-100.00,WNW,294,12.0,20.0,70,0.00,,,0.00,826.000000,,2013-03-31 22:23:00,
2013-03-31 12:33:00,65.0,55.0,-100.00,WNW,294,12.0,20.0,70,0.00,,,0.00,826.000000,,2013-03-31 22:33:00,
2013-03-31 12:42:00,65.0,55.0,-100.00,WNW,294,12.0,20.0,70,0.00,,,0.00,826.000000,,2013-03-31 22:42:00,
2013-03-31 12:52:00,65.0,55.0,-100.00,WNW,294,12.0,20.0,70,0.00,,,0.00,826.000000,,2013-03-31 22:52:00,
2013-03-31 13:22:00,64.0,56.0,-100.00,WNW,286,13.0,23.0,74,0.00,,,0.00,881.000000,,2013-03-31 23:22:00,
2013-03-31 13:32:00,64.0,56.0,-100.00,WNW,286,13.0,23.0,74,0.00,,,0.00,881.000000,,2013-03-31 23:32:00,
2013-03-31 13:42:00,64.0,56.0,-100.00,WNW,286,13.0,23.0,74,0.00,,,0.00,881.000000,,2013-03-31 23:42:00,
2013-03-31 13:52:00,64.0,56.0,-100.00,WNW,286,13.0,23.0,74,0.00,,,0.00,881.000000,,2013-03-31 23:52:00,
2013-03-31 14:22:00,63.0,55.0,-100.00,WNW,290,10.0,19.0,74,0.00,,,0.00,756.000000,,2013-04-01 00:22:00,
2013-03-31 14:32:00,63.0,55.0,-100.00,WNW,290,10.0,19.0,74,0.00,,,0.00,756.000000,,2013-04-01 00:32:00,
2013-03-31 14:42:00,63.0,55.0,-100.00,WNW,290,10.0,19.0,74,0.00,,,0.00,756.000000,,2013-04-01 00:42:00,
2013-03-31 14:52:00,63.0,55.0,-100.00,WNW,290,10.0,19.0,74,0.00,,,0.00,756.000000,,2013-04-01 00:52:00,
2013-03-31 15:22:00,62.0,51.0,-100.00,WNW,289,10.0,18.0,66,0.00,,,0.00,741.000000,,2013-04-01 01:22:00,
2013-03-31 15:32:00,62.0,51.0,-100.00,WNW,289,10.0,18.0,66,0.00,,,0.00,741.000000,,2013-04-01 01:32:00,
2013-03-31 15:42:00,62.0,51.0,-100.00,WNW,289,10.0,18.0,66,0.00,,,0.00,741.000000,,2013-04-01 01:42:00,
2013-03-31 15:52:00,62.0,51.0,-100.00,WNW,289,10.0,18.0,66,0.00,,,0.00,741.000000,,2013-04-01 01:52:00,
2013-03-31 16:22:00,61.0,53.0,-100.00,WNW,303,10.0,18.0,74,0.00,,,0.00,756.000000,,2013-04-01 02:22:00,
2013-03-31 16:32:00,61.0,53.0,-100.00,WNW,303,10.0,18.0,74,0.00,,,0.00,756.000000,,2013-04-01 02:32:00,
2013-03-31 16:42:00,61.0,53.0,-100.00,WNW,303,10.0,18.0,74,0.00,,,0.00,756.000000,,2013-04-01 02:42:00,
2013-03-31 16:52:00,61.0,53.0,-100.00,WNW,303,10.0,18.0,74,0.00,,,0.00,756.000000,,2013-04-01 02:52:00,
2013-03-31 17:22:00,61.0,54.0,-100.00,NNW,336,7.0,15.0,77,0.00,,,0.00,456.000000,,2013-04-01 03:22:00,
2013-03-31 17:33:00,61.0,54.0,-100.00,NNW,336,7.0,15.0,77,0.00,,,0.00,456.000000,,2013-04-01 03:33:00,
2013-03-31 17:43:00,61.0,54.0,-100.00,NNW,336,7.0,15.0,77,0.00,,,0.00,456.000000,,2013-04-01 03:43:00,
2013-03-31 17:52:00,61.0,54.0,-100.00,NNW,336,7.0,15.0,77,0.00,,,0.00,456.000000,,2013-04-01 03:52:00,
2013-03-31 18:23:00,59.0,54.0,-100.00,WNW,288,7.0,15.0,82,0.00,,,0.00,219.000000,,2013-04-01 04:23:00,
2013-03-31 18:32:00,59.0,54.0,-100.00,WNW,288,7.0,15.0,82,0.00,,,0.00,219.000000,,2013-04-01 04:32:00,
2013-03-31 18:43:00,59.0,54.0,-100.00,WNW,288,7.0,15.0,82,0.00,,,0.00,219.000000,,2013-04-01 04:43:00,
2013-03-31 18:52:00,59.0,54.0,-100.00,WNW,288,7.0,15.0,82,0.00,,,0.00,219.000000,,2013-04-01 04:52:00,
2013-03-31 19:22:00,56.0,54.0,-100.00,NW,314,5.0,9.0,93,0.00,,,0.00,49.000000,,2013-04-01 05:22:00,
2013-03-31 19:32:00,56.0,54.0,-100.00,NW,314,5.0,9.0,93,0.00,,,0.00,49.000000,,2013-04-01 05:32:00,
2013-03-31 19:42:00,56.0,54.0,-100.00,NW,314,5.0,9.0,93,0.00,,,0.00,49.000000,,2013-04-01 05:42:00,
2013-03-31 19:52:00,56.0,54.0,-100.00,NW,314,5.0,9.0,93,0.00,,,0.00,49.000000,,2013-04-01 05:52:00,
2013-03-31 20:22:00,55.0,54.0,-100.00,North,359,1.0,9.0,97,0.00,,,0.00,0.000000,,2013-04-01 06:22:00,
2013-03-31 20:33:00,55.0,54.0,-100.00,North,359,1.0,9.0,97,0.00,,,0.00,0.000000,,2013-04-01 06:33:00,
2013-03-31 20:42:00,55.0,54.0,-100.00,North,359,1.0,9.0,97,0.00,,,0.00,0.000000,,2013-04-01 06:42:00,
2013-03-31 20:52:00,55.0,54.0,-100.00,North,359,1.0,9.0,97,0.00,,,0.00,0.000000,,2013-04-01 06:52:00,
2013-03-31 21:22:00,53.0,52.0,-100.00,ESE,121,4.0,6.0,97,0.00,,,0.00,0.000000,,2013-04-01 07:22:00,
2013-03-31 21:32:00,53.0,52.0,-100.00,ESE,121,4.0,6.0,97,0.00,,,0.00,0.000000,,2013-04-01 07:32:00,
2013-03-31 21:42:00,53.0,52.0,-100.00,ESE,121,4.0,6.0,97,0.00,,,0.00,0.000000,,2013-04-01 07:42:00,
2013-03-31 21:52:00,53.0,52.0,-100.00,ESE,121,4.0,6.0,97,0.00,,,0.00,0.000000,,2013-04-01 07:52:00,
2013-03-31 22:22:00,48.0,46.0,-100.00,SE,137,8.0,12.0,94,0.00,,,0.00,0.000000,,2013-04-01 08:22:00,
2013-03-31 22:32:00,48.0,46.0,-100.00,SE,137,8.0,12.0,94,0.00,,,0.00,0.000000,,2013-04-01 08:32:00,
2013-03-31 22:43:00,48.0,46.0,-100.00,SE,137,8.0,12.0,94,0.00,,,0.00,0.000000,,2013-04-01 08:43:00,
2013-03-31 22:52:00,48.0,46.0,-100.00,SE,137,8.0,12.0,94,0.00,,,0.00,0.000000,,2013-04-01 08:52:00,
2013-03-31 23:22:00,47.0,44.0,-100.00,SE,129,12.0,18.0,88,0.00,,,0.00,0.000000,,2013-04-01 09:22:00,
2013-03-31 23:33:00,47.0,44.0,-100.00,SE,129,12.0,18.0,88,0.00,,,0.00,0.000000,,2013-04-01 09:33:00,
2013-03-31 23:42:00,47.0,44.0,-100.00,SE,129,12.0,18.0,88,0.00,,,0.00,0.000000,,2013-04-01 09:42:00,
2013-03-31 23:52:00,47.0,44.0,-100.00,SE,129,12.0,18.0,88,0.00,,,0.00,0.000000,,2013-04-01 09:52:00,